sensor_id;sensor_type;location;lat;lon;timestamp;P1;durP1;ratioP1;P2;durP2;ratioP2
7027;SDS011;3555;53.248;10.336;2023-10-19T00:02:05;8.33;;;6.57;;
7027;SDS011;3555;53.248;10.336;2023-10-19T00:04:34;10.53;;;7.33;;
7027;SDS011;3555;53.248;10.336;2023-10-19T00:07:01;10.40;;;6.93;;
7027;SDS011;3555;53.248;10.336;2023-10-19T00:09:30;8.87;;;7.33;;
7027;SDS011;3555;53.248;10.336;2023-10-19T00:12:02;11.10;;;7.17;;
7027;SDS011;3555;53.248;10.336;2023-10-19T00:14:30;10.20;;;7.53;;
7027;SDS011;3555;53.248;10.336;2023-10-19T00:16:57;11.63;;;7.00;;
7027;SDS011;3555;53.248;10.336;2023-10-19T00:19:30;8.27;;;6.60;;
7027;SDS011;3555;53.248;10.336;2023-10-19T00:22:04;9.00;;;6.80;;
7027;SDS011;3555;53.248;10.336;2023-10-19T00:24:36;9.80;;;6.97;;
7027;SDS011;3555;53.248;10.336;2023-10-19T00:27:02;13.03;;;7.40;;
7027;SDS011;3555;53.248;10.336;2023-10-19T00:29:40;14.27;;;7.53;;
7027;SDS011;3555;53.248;10.336;2023-10-19T00:32:06;9.30;;;6.83;;
7027;SDS011;3555;53.248;10.336;2023-10-19T00:34:40;10.43;;;7.40;;
7027;SDS011;3555;53.248;10.336;2023-10-19T00:37:15;10.87;;;7.07;;
7027;SDS011;3555;53.248;10.336;2023-10-19T00:39:46;9.60;;;7.40;;
7027;SDS011;3555;53.248;10.336;2023-10-19T00:42:19;10.33;;;7.37;;
7027;SDS011;3555;53.248;10.336;2023-10-19T00:44:50;13.47;;;7.97;;
7027;SDS011;3555;53.248;10.336;2023-10-19T00:47:26;10.50;;;7.30;;
7027;SDS011;3555;53.248;10.336;2023-10-19T00:50:00;10.40;;;7.23;;
7027;SDS011;3555;53.248;10.336;2023-10-19T00:52:30;13.23;;;7.43;;
7027;SDS011;3555;53.248;10.336;2023-10-19T00:55:07;9.37;;;7.00;;
7027;SDS011;3555;53.248;10.336;2023-10-19T00:57:37;11.37;;;7.27;;
7027;SDS011;3555;53.248;10.336;2023-10-19T01:00:11;8.83;;;7.20;;
7027;SDS011;3555;53.248;10.336;2023-10-19T01:02:47;8.57;;;7.43;;
7027;SDS011;3555;53.248;10.336;2023-10-19T01:05:19;10.87;;;7.30;;
7027;SDS011;3555;53.248;10.336;2023-10-19T01:07:47;9.67;;;7.53;;
7027;SDS011;3555;53.248;10.336;2023-10-19T01:10:21;9.67;;;7.57;;
7027;SDS011;3555;53.248;10.336;2023-10-19T01:12:49;10.53;;;7.47;;
7027;SDS011;3555;53.248;10.336;2023-10-19T01:15:18;12.33;;;8.13;;
7027;SDS011;3555;53.248;10.336;2023-10-19T01:17:50;8.30;;;6.77;;
7027;SDS011;3555;53.248;10.336;2023-10-19T01:20:19;8.93;;;6.97;;
7027;SDS011;3555;53.248;10.336;2023-10-19T01:22:49;11.70;;;7.80;;
7027;SDS011;3555;53.248;10.336;2023-10-19T01:25:31;10.90;;;7.80;;
7027;SDS011;3555;53.248;10.336;2023-10-19T01:28:02;13.83;;;7.70;;
7027;SDS011;3555;53.248;10.336;2023-10-19T01:30:33;13.10;;;7.53;;
7027;SDS011;3555;53.248;10.336;2023-10-19T01:33:01;10.10;;;7.57;;
7027;SDS011;3555;53.248;10.336;2023-10-19T01:35:30;10.50;;;7.67;;
7027;SDS011;3555;53.248;10.336;2023-10-19T01:38:18;11.63;;;7.70;;
7027;SDS011;3555;53.248;10.336;2023-10-19T01:40:44;9.83;;;7.60;;
7027;SDS011;3555;53.248;10.336;2023-10-19T01:43:13;11.03;;;7.40;;
7027;SDS011;3555;53.248;10.336;2023-10-19T01:45:45;10.53;;;8.03;;
7027;SDS011;3555;53.248;10.336;2023-10-19T01:48:13;10.70;;;8.33;;
7027;SDS011;3555;53.248;10.336;2023-10-19T01:50:40;11.40;;;7.67;;
7027;SDS011;3555;53.248;10.336;2023-10-19T01:53:07;10.03;;;6.80;;
7027;SDS011;3555;53.248;10.336;2023-10-19T01:55:41;11.40;;;8.07;;
7027;SDS011;3555;53.248;10.336;2023-10-19T01:58:08;12.43;;;7.50;;
7027;SDS011;3555;53.248;10.336;2023-10-19T02:00:35;10.07;;;7.60;;
7027;SDS011;3555;53.248;10.336;2023-10-19T02:03:06;11.80;;;7.73;;
7027;SDS011;3555;53.248;10.336;2023-10-19T02:05:32;10.90;;;7.57;;
7027;SDS011;3555;53.248;10.336;2023-10-19T02:08:05;10.63;;;7.30;;
7027;SDS011;3555;53.248;10.336;2023-10-19T02:10:32;11.83;;;7.50;;
7027;SDS011;3555;53.248;10.336;2023-10-19T02:13:01;8.23;;;6.93;;
7027;SDS011;3555;53.248;10.336;2023-10-19T02:15:31;11.33;;;8.13;;
7027;SDS011;3555;53.248;10.336;2023-10-19T02:18:00;13.00;;;7.87;;
7027;SDS011;3555;53.248;10.336;2023-10-19T02:20:27;14.43;;;9.53;;
7027;SDS011;3555;53.248;10.336;2023-10-19T02:22:54;12.47;;;8.67;;
7027;SDS011;3555;53.248;10.336;2023-10-19T02:25:22;12.10;;;8.27;;
7027;SDS011;3555;53.248;10.336;2023-10-19T02:27:51;13.50;;;8.63;;
7027;SDS011;3555;53.248;10.336;2023-10-19T02:30:19;11.60;;;8.40;;
7027;SDS011;3555;53.248;10.336;2023-10-19T02:32:45;11.23;;;7.83;;
7027;SDS011;3555;53.248;10.336;2023-10-19T02:35:13;12.07;;;7.97;;
7027;SDS011;3555;53.248;10.336;2023-10-19T02:37:40;12.90;;;8.47;;
7027;SDS011;3555;53.248;10.336;2023-10-19T02:40:07;11.47;;;8.37;;
7027;SDS011;3555;53.248;10.336;2023-10-19T02:42:44;11.17;;;8.87;;
7027;SDS011;3555;53.248;10.336;2023-10-19T02:45:12;10.63;;;8.70;;
7027;SDS011;3555;53.248;10.336;2023-10-19T02:47:44;11.67;;;9.27;;
7027;SDS011;3555;53.248;10.336;2023-10-19T02:50:11;13.47;;;8.47;;
7027;SDS011;3555;53.248;10.336;2023-10-19T02:52:40;14.30;;;8.93;;
7027;SDS011;3555;53.248;10.336;2023-10-19T02:55:08;15.17;;;9.57;;
7027;SDS011;3555;53.248;10.336;2023-10-19T02:57:36;12.40;;;9.33;;
7027;SDS011;3555;53.248;10.336;2023-10-19T03:00:04;11.43;;;9.10;;
7027;SDS011;3555;53.248;10.336;2023-10-19T03:02:37;11.43;;;8.83;;
7027;SDS011;3555;53.248;10.336;2023-10-19T03:05:05;13.80;;;9.80;;
7027;SDS011;3555;53.248;10.336;2023-10-19T03:07:39;13.37;;;9.77;;
7027;SDS011;3555;53.248;10.336;2023-10-19T03:10:06;15.83;;;10.77;;
7027;SDS011;3555;53.248;10.336;2023-10-19T03:12:47;13.73;;;10.13;;
7027;SDS011;3555;53.248;10.336;2023-10-19T03:15:15;14.37;;;10.20;;
7027;SDS011;3555;53.248;10.336;2023-10-19T03:17:42;13.83;;;10.00;;
7027;SDS011;3555;53.248;10.336;2023-10-19T03:20:10;13.87;;;9.80;;
7027;SDS011;3555;53.248;10.336;2023-10-19T03:22:37;13.90;;;9.47;;
7027;SDS011;3555;53.248;10.336;2023-10-19T03:25:03;13.63;;;9.73;;
7027;SDS011;3555;53.248;10.336;2023-10-19T03:27:57;13.20;;;9.90;;
7027;SDS011;3555;53.248;10.336;2023-10-19T03:30:31;15.07;;;9.80;;
7027;SDS011;3555;53.248;10.336;2023-10-19T03:32:58;16.67;;;10.63;;
7027;SDS011;3555;53.248;10.336;2023-10-19T03:35:27;15.73;;;10.97;;
7027;SDS011;3555;53.248;10.336;2023-10-19T03:37:54;13.97;;;10.67;;
7027;SDS011;3555;53.248;10.336;2023-10-19T03:40:23;13.70;;;10.07;;
7027;SDS011;3555;53.248;10.336;2023-10-19T03:42:55;15.47;;;10.50;;
7027;SDS011;3555;53.248;10.336;2023-10-19T03:45:21;15.10;;;10.00;;
7027;SDS011;3555;53.248;10.336;2023-10-19T03:47:50;15.50;;;10.40;;
7027;SDS011;3555;53.248;10.336;2023-10-19T03:50:20;12.73;;;10.10;;
7027;SDS011;3555;53.248;10.336;2023-10-19T03:52:50;13.87;;;11.10;;
7027;SDS011;3555;53.248;10.336;2023-10-19T03:55:16;15.70;;;10.60;;
7027;SDS011;3555;53.248;10.336;2023-10-19T03:57:44;15.87;;;11.27;;
7027;SDS011;3555;53.248;10.336;2023-10-19T04:00:15;15.47;;;11.27;;
7027;SDS011;3555;53.248;10.336;2023-10-19T04:02:44;16.93;;;11.10;;
7027;SDS011;3555;53.248;10.336;2023-10-19T04:05:11;16.70;;;11.83;;
7027;SDS011;3555;53.248;10.336;2023-10-19T04:07:47;18.40;;;11.63;;
7027;SDS011;3555;53.248;10.336;2023-10-19T04:10:20;17.27;;;11.60;;
7027;SDS011;3555;53.248;10.336;2023-10-19T04:13:03;16.00;;;11.50;;
7027;SDS011;3555;53.248;10.336;2023-10-19T04:15:34;17.60;;;12.03;;
7027;SDS011;3555;53.248;10.336;2023-10-19T04:18:03;16.37;;;11.30;;
7027;SDS011;3555;53.248;10.336;2023-10-19T04:20:35;17.13;;;12.37;;
7027;SDS011;3555;53.248;10.336;2023-10-19T04:23:19;17.87;;;12.00;;
7027;SDS011;3555;53.248;10.336;2023-10-19T04:25:48;16.83;;;11.63;;
7027;SDS011;3555;53.248;10.336;2023-10-19T04:28:15;15.50;;;11.97;;
7027;SDS011;3555;53.248;10.336;2023-10-19T04:30:45;18.20;;;12.00;;
7027;SDS011;3555;53.248;10.336;2023-10-19T04:33:13;18.83;;;12.40;;
7027;SDS011;3555;53.248;10.336;2023-10-19T04:35:41;15.47;;;11.77;;
7027;SDS011;3555;53.248;10.336;2023-10-19T04:38:08;15.47;;;11.47;;
7027;SDS011;3555;53.248;10.336;2023-10-19T04:40:35;18.87;;;13.20;;
7027;SDS011;3555;53.248;10.336;2023-10-19T04:43:04;17.13;;;12.70;;
7027;SDS011;3555;53.248;10.336;2023-10-19T04:45:31;18.90;;;13.07;;
7027;SDS011;3555;53.248;10.336;2023-10-19T04:47:58;19.97;;;12.50;;
7027;SDS011;3555;53.248;10.336;2023-10-19T04:50:25;17.43;;;11.87;;
7027;SDS011;3555;53.248;10.336;2023-10-19T04:52:51;17.63;;;12.77;;
7027;SDS011;3555;53.248;10.336;2023-10-19T04:55:18;18.43;;;12.93;;
7027;SDS011;3555;53.248;10.336;2023-10-19T04:57:45;16.73;;;12.70;;
7027;SDS011;3555;53.248;10.336;2023-10-19T05:00:14;17.97;;;12.97;;
7027;SDS011;3555;53.248;10.336;2023-10-19T05:02:41;16.27;;;11.97;;
7027;SDS011;3555;53.248;10.336;2023-10-19T05:05:08;20.60;;;13.63;;
7027;SDS011;3555;53.248;10.336;2023-10-19T05:07:35;15.40;;;12.90;;
7027;SDS011;3555;53.248;10.336;2023-10-19T05:10:03;19.63;;;13.70;;
7027;SDS011;3555;53.248;10.336;2023-10-19T05:12:31;20.20;;;13.07;;
7027;SDS011;3555;53.248;10.336;2023-10-19T05:14:58;18.87;;;13.27;;
7027;SDS011;3555;53.248;10.336;2023-10-19T05:17:27;18.17;;;13.87;;
7027;SDS011;3555;53.248;10.336;2023-10-19T05:19:53;18.97;;;13.80;;
7027;SDS011;3555;53.248;10.336;2023-10-19T05:22:20;19.73;;;13.10;;
7027;SDS011;3555;53.248;10.336;2023-10-19T05:24:50;18.13;;;13.40;;
7027;SDS011;3555;53.248;10.336;2023-10-19T05:27:16;18.63;;;13.13;;
7027;SDS011;3555;53.248;10.336;2023-10-19T05:29:45;17.00;;;12.60;;
7027;SDS011;3555;53.248;10.336;2023-10-19T05:32:11;17.83;;;13.00;;
7027;SDS011;3555;53.248;10.336;2023-10-19T05:34:40;19.77;;;13.17;;
7027;SDS011;3555;53.248;10.336;2023-10-19T05:37:06;20.83;;;12.17;;
7027;SDS011;3555;53.248;10.336;2023-10-19T05:39:34;17.97;;;12.13;;
7027;SDS011;3555;53.248;10.336;2023-10-19T05:42:01;18.17;;;12.03;;
7027;SDS011;3555;53.248;10.336;2023-10-19T05:44:29;18.80;;;13.03;;
7027;SDS011;3555;53.248;10.336;2023-10-19T05:46:56;19.27;;;13.27;;
7027;SDS011;3555;53.248;10.336;2023-10-19T05:49:23;15.60;;;11.90;;
7027;SDS011;3555;53.248;10.336;2023-10-19T05:51:52;16.10;;;13.50;;
7027;SDS011;3555;53.248;10.336;2023-10-19T05:54:19;17.30;;;12.63;;
7027;SDS011;3555;53.248;10.336;2023-10-19T05:56:48;19.57;;;12.93;;
7027;SDS011;3555;53.248;10.336;2023-10-19T05:59:15;17.27;;;12.00;;
7027;SDS011;3555;53.248;10.336;2023-10-19T06:01:42;16.97;;;12.10;;
7027;SDS011;3555;53.248;10.336;2023-10-19T06:04:11;19.50;;;12.63;;
7027;SDS011;3555;53.248;10.336;2023-10-19T06:06:39;19.47;;;11.57;;
7027;SDS011;3555;53.248;10.336;2023-10-19T06:09:07;18.40;;;11.97;;
7027;SDS011;3555;53.248;10.336;2023-10-19T06:11:34;17.63;;;11.73;;
7027;SDS011;3555;53.248;10.336;2023-10-19T06:14:03;16.53;;;11.77;;
7027;SDS011;3555;53.248;10.336;2023-10-19T06:16:32;19.57;;;13.00;;
7027;SDS011;3555;53.248;10.336;2023-10-19T06:18:59;20.07;;;13.00;;
7027;SDS011;3555;53.248;10.336;2023-10-19T06:21:26;17.00;;;12.63;;
7027;SDS011;3555;53.248;10.336;2023-10-19T06:23:53;21.13;;;12.93;;
7027;SDS011;3555;53.248;10.336;2023-10-19T06:26:21;18.30;;;11.40;;
7027;SDS011;3555;53.248;10.336;2023-10-19T06:28:48;17.07;;;12.33;;
7027;SDS011;3555;53.248;10.336;2023-10-19T06:31:16;16.70;;;12.53;;
7027;SDS011;3555;53.248;10.336;2023-10-19T06:33:44;18.57;;;12.30;;
7027;SDS011;3555;53.248;10.336;2023-10-19T06:36:11;17.70;;;12.17;;
7027;SDS011;3555;53.248;10.336;2023-10-19T06:38:38;16.63;;;11.83;;
7027;SDS011;3555;53.248;10.336;2023-10-19T06:41:11;17.77;;;12.73;;
7027;SDS011;3555;53.248;10.336;2023-10-19T06:43:40;15.60;;;11.50;;
7027;SDS011;3555;53.248;10.336;2023-10-19T06:46:07;15.93;;;11.97;;
7027;SDS011;3555;53.248;10.336;2023-10-19T06:48:36;18.50;;;12.00;;
7027;SDS011;3555;53.248;10.336;2023-10-19T06:51:03;17.57;;;12.17;;
7027;SDS011;3555;53.248;10.336;2023-10-19T06:53:31;17.10;;;12.77;;
7027;SDS011;3555;53.248;10.336;2023-10-19T06:55:58;19.47;;;12.70;;
7027;SDS011;3555;53.248;10.336;2023-10-19T06:58:25;17.73;;;12.03;;
7027;SDS011;3555;53.248;10.336;2023-10-19T07:00:53;19.67;;;12.57;;
7027;SDS011;3555;53.248;10.336;2023-10-19T07:03:25;19.03;;;12.00;;
7027;SDS011;3555;53.248;10.336;2023-10-19T07:05:54;16.97;;;12.00;;
7027;SDS011;3555;53.248;10.336;2023-10-19T07:08:21;17.77;;;11.70;;
7027;SDS011;3555;53.248;10.336;2023-10-19T07:10:49;18.17;;;12.47;;
7027;SDS011;3555;53.248;10.336;2023-10-19T07:13:15;17.40;;;12.77;;
7027;SDS011;3555;53.248;10.336;2023-10-19T07:15:44;20.10;;;12.13;;
7027;SDS011;3555;53.248;10.336;2023-10-19T07:18:12;16.37;;;12.00;;
7027;SDS011;3555;53.248;10.336;2023-10-19T07:20:39;18.87;;;11.60;;
7027;SDS011;3555;53.248;10.336;2023-10-19T07:23:07;16.70;;;12.50;;
7027;SDS011;3555;53.248;10.336;2023-10-19T07:25:43;16.30;;;12.00;;
7027;SDS011;3555;53.248;10.336;2023-10-19T07:28:11;20.50;;;13.23;;
7027;SDS011;3555;53.248;10.336;2023-10-19T07:30:39;16.67;;;12.97;;
7027;SDS011;3555;53.248;10.336;2023-10-19T07:33:06;17.43;;;13.10;;
7027;SDS011;3555;53.248;10.336;2023-10-19T07:35:36;20.40;;;13.30;;
7027;SDS011;3555;53.248;10.336;2023-10-19T07:38:04;19.63;;;13.33;;
7027;SDS011;3555;53.248;10.336;2023-10-19T07:40:32;19.33;;;12.40;;
7027;SDS011;3555;53.248;10.336;2023-10-19T07:43:00;19.17;;;13.03;;
7027;SDS011;3555;53.248;10.336;2023-10-19T07:45:28;18.37;;;12.20;;
7027;SDS011;3555;53.248;10.336;2023-10-19T07:47:56;21.63;;;13.70;;
7027;SDS011;3555;53.248;10.336;2023-10-19T07:50:31;17.80;;;12.67;;
7027;SDS011;3555;53.248;10.336;2023-10-19T07:52:59;16.73;;;12.73;;
7027;SDS011;3555;53.248;10.336;2023-10-19T07:55:26;17.20;;;12.57;;
7027;SDS011;3555;53.248;10.336;2023-10-19T07:57:53;18.77;;;12.23;;
7027;SDS011;3555;53.248;10.336;2023-10-19T08:00:22;23.27;;;13.40;;
7027;SDS011;3555;53.248;10.336;2023-10-19T08:02:49;19.37;;;13.53;;
7027;SDS011;3555;53.248;10.336;2023-10-19T08:05:18;20.83;;;12.57;;
7027;SDS011;3555;53.248;10.336;2023-10-19T08:07:45;18.83;;;14.13;;
7027;SDS011;3555;53.248;10.336;2023-10-19T08:10:14;18.20;;;13.00;;
7027;SDS011;3555;53.248;10.336;2023-10-19T08:12:43;20.67;;;13.63;;
7027;SDS011;3555;53.248;10.336;2023-10-19T08:15:13;17.43;;;13.67;;
7027;SDS011;3555;53.248;10.336;2023-10-19T08:17:41;20.37;;;13.83;;
7027;SDS011;3555;53.248;10.336;2023-10-19T08:20:09;21.77;;;14.53;;
7027;SDS011;3555;53.248;10.336;2023-10-19T08:22:41;19.23;;;13.73;;
7027;SDS011;3555;53.248;10.336;2023-10-19T08:25:09;21.03;;;14.10;;
7027;SDS011;3555;53.248;10.336;2023-10-19T08:27:39;20.90;;;14.37;;
7027;SDS011;3555;53.248;10.336;2023-10-19T08:30:09;18.70;;;14.33;;
7027;SDS011;3555;53.248;10.336;2023-10-19T08:32:37;22.07;;;14.27;;
7027;SDS011;3555;53.248;10.336;2023-10-19T08:35:05;19.43;;;14.37;;
7027;SDS011;3555;53.248;10.336;2023-10-19T08:37:32;18.20;;;13.90;;
7027;SDS011;3555;53.248;10.336;2023-10-19T08:39:59;20.57;;;14.20;;
7027;SDS011;3555;53.248;10.336;2023-10-19T08:42:26;23.33;;;15.20;;
7027;SDS011;3555;53.248;10.336;2023-10-19T08:44:56;18.87;;;14.63;;
7027;SDS011;3555;53.248;10.336;2023-10-19T08:47:25;21.33;;;14.70;;
7027;SDS011;3555;53.248;10.336;2023-10-19T08:49:52;24.30;;;15.50;;
7027;SDS011;3555;53.248;10.336;2023-10-19T08:52:19;19.77;;;15.03;;
7027;SDS011;3555;53.248;10.336;2023-10-19T08:54:48;21.93;;;15.20;;
7027;SDS011;3555;53.248;10.336;2023-10-19T08:57:15;22.50;;;15.83;;
7027;SDS011;3555;53.248;10.336;2023-10-19T08:59:43;20.70;;;16.20;;
7027;SDS011;3555;53.248;10.336;2023-10-19T09:02:13;24.10;;;15.53;;
7027;SDS011;3555;53.248;10.336;2023-10-19T09:04:41;23.00;;;15.53;;
7027;SDS011;3555;53.248;10.336;2023-10-19T09:07:08;22.73;;;16.20;;
7027;SDS011;3555;53.248;10.336;2023-10-19T09:09:36;23.17;;;15.17;;
7027;SDS011;3555;53.248;10.336;2023-10-19T09:12:06;21.93;;;16.53;;
7027;SDS011;3555;53.248;10.336;2023-10-19T09:14:33;25.27;;;16.00;;
7027;SDS011;3555;53.248;10.336;2023-10-19T09:17:05;22.37;;;16.73;;
7027;SDS011;3555;53.248;10.336;2023-10-19T09:19:37;22.27;;;15.83;;
7027;SDS011;3555;53.248;10.336;2023-10-19T09:22:05;20.43;;;16.03;;
7027;SDS011;3555;53.248;10.336;2023-10-19T09:24:41;22.93;;;16.57;;
7027;SDS011;3555;53.248;10.336;2023-10-19T09:27:10;23.37;;;16.37;;
7027;SDS011;3555;53.248;10.336;2023-10-19T09:29:37;20.57;;;15.57;;
7027;SDS011;3555;53.248;10.336;2023-10-19T09:32:05;22.37;;;15.87;;
7027;SDS011;3555;53.248;10.336;2023-10-19T09:34:34;22.03;;;16.33;;
7027;SDS011;3555;53.248;10.336;2023-10-19T09:37:03;21.43;;;16.13;;
7027;SDS011;3555;53.248;10.336;2023-10-19T09:39:31;22.97;;;15.47;;
7027;SDS011;3555;53.248;10.336;2023-10-19T09:42:00;23.97;;;16.33;;
7027;SDS011;3555;53.248;10.336;2023-10-19T09:44:32;22.87;;;17.20;;
7027;SDS011;3555;53.248;10.336;2023-10-19T09:47:03;23.33;;;16.47;;
7027;SDS011;3555;53.248;10.336;2023-10-19T09:49:37;26.40;;;16.87;;
7027;SDS011;3555;53.248;10.336;2023-10-19T09:52:04;23.57;;;16.80;;
7027;SDS011;3555;53.248;10.336;2023-10-19T09:54:34;22.47;;;16.23;;
7027;SDS011;3555;53.248;10.336;2023-10-19T09:57:13;22.60;;;16.70;;
7027;SDS011;3555;53.248;10.336;2023-10-19T09:59:44;23.10;;;16.50;;
7027;SDS011;3555;53.248;10.336;2023-10-19T10:02:16;23.90;;;17.03;;
7027;SDS011;3555;53.248;10.336;2023-10-19T10:04:45;22.80;;;16.73;;
7027;SDS011;3555;53.248;10.336;2023-10-19T10:07:13;25.50;;;17.13;;
7027;SDS011;3555;53.248;10.336;2023-10-19T10:09:42;24.50;;;17.50;;
7027;SDS011;3555;53.248;10.336;2023-10-19T10:12:17;23.00;;;17.20;;
7027;SDS011;3555;53.248;10.336;2023-10-19T10:14:53;22.90;;;16.50;;
7027;SDS011;3555;53.248;10.336;2023-10-19T10:17:23;24.70;;;17.27;;
7027;SDS011;3555;53.248;10.336;2023-10-19T10:19:54;22.70;;;18.07;;
7027;SDS011;3555;53.248;10.336;2023-10-19T10:22:24;24.43;;;17.27;;
7027;SDS011;3555;53.248;10.336;2023-10-19T10:24:55;24.27;;;18.43;;
7027;SDS011;3555;53.248;10.336;2023-10-19T10:27:22;24.60;;;17.87;;
7027;SDS011;3555;53.248;10.336;2023-10-19T10:29:55;28.07;;;19.03;;
7027;SDS011;3555;53.248;10.336;2023-10-19T10:35:10;25.97;;;17.97;;
7027;SDS011;3555;53.248;10.336;2023-10-19T10:38:16;24.83;;;18.43;;
7027;SDS011;3555;53.248;10.336;2023-10-19T10:40:43;26.47;;;18.57;;
7027;SDS011;3555;53.248;10.336;2023-10-19T10:43:10;24.73;;;17.73;;
7027;SDS011;3555;53.248;10.336;2023-10-19T10:45:38;24.37;;;18.47;;
7027;SDS011;3555;53.248;10.336;2023-10-19T10:48:10;26.13;;;18.67;;
7027;SDS011;3555;53.248;10.336;2023-10-19T10:50:39;25.73;;;18.10;;
7027;SDS011;3555;53.248;10.336;2023-10-19T10:53:06;25.90;;;19.07;;
7027;SDS011;3555;53.248;10.336;2023-10-19T10:55:34;26.80;;;19.17;;
7027;SDS011;3555;53.248;10.336;2023-10-19T10:58:01;31.43;;;19.37;;
7027;SDS011;3555;53.248;10.336;2023-10-19T11:00:28;26.40;;;19.83;;
7027;SDS011;3555;53.248;10.336;2023-10-19T11:03:02;27.43;;;19.87;;
7027;SDS011;3555;53.248;10.336;2023-10-19T11:05:35;29.90;;;21.20;;
7027;SDS011;3555;53.248;10.336;2023-10-19T11:08:04;29.93;;;19.67;;
7027;SDS011;3555;53.248;10.336;2023-10-19T11:10:34;25.20;;;19.30;;
7027;SDS011;3555;53.248;10.336;2023-10-19T11:13:01;25.50;;;19.13;;
7027;SDS011;3555;53.248;10.336;2023-10-19T11:15:29;28.47;;;19.43;;
7027;SDS011;3555;53.248;10.336;2023-10-19T11:17:56;26.43;;;20.37;;
7027;SDS011;3555;53.248;10.336;2023-10-19T11:20:23;26.83;;;20.50;;
7027;SDS011;3555;53.248;10.336;2023-10-19T11:22:52;26.50;;;19.77;;
7027;SDS011;3555;53.248;10.336;2023-10-19T11:25:24;29.30;;;20.80;;
7027;SDS011;3555;53.248;10.336;2023-10-19T11:27:53;28.67;;;21.03;;
7027;SDS011;3555;53.248;10.336;2023-10-19T11:30:23;27.87;;;21.33;;
7027;SDS011;3555;53.248;10.336;2023-10-19T11:32:51;25.60;;;19.73;;
7027;SDS011;3555;53.248;10.336;2023-10-19T11:35:22;28.87;;;21.03;;
7027;SDS011;3555;53.248;10.336;2023-10-19T11:37:49;28.50;;;20.77;;
7027;SDS011;3555;53.248;10.336;2023-10-19T11:40:19;27.33;;;20.30;;
7027;SDS011;3555;53.248;10.336;2023-10-19T11:42:48;29.07;;;21.27;;
7027;SDS011;3555;53.248;10.336;2023-10-19T11:45:15;26.20;;;21.50;;
7027;SDS011;3555;53.248;10.336;2023-10-19T11:47:42;28.77;;;21.07;;
7027;SDS011;3555;53.248;10.336;2023-10-19T11:50:10;30.40;;;21.60;;
7027;SDS011;3555;53.248;10.336;2023-10-19T11:52:40;30.00;;;21.67;;
7027;SDS011;3555;53.248;10.336;2023-10-19T11:55:07;28.37;;;20.50;;
7027;SDS011;3555;53.248;10.336;2023-10-19T11:57:34;29.10;;;22.00;;
7027;SDS011;3555;53.248;10.336;2023-10-19T12:00:03;27.87;;;21.60;;
7027;SDS011;3555;53.248;10.336;2023-10-19T12:02:34;32.47;;;23.03;;
7027;SDS011;3555;53.248;10.336;2023-10-19T12:05:03;32.47;;;24.37;;
7027;SDS011;3555;53.248;10.336;2023-10-19T12:07:34;33.30;;;24.20;;
7027;SDS011;3555;53.248;10.336;2023-10-19T12:10:02;31.07;;;23.90;;
7027;SDS011;3555;53.248;10.336;2023-10-19T12:12:29;29.63;;;23.37;;
7027;SDS011;3555;53.248;10.336;2023-10-19T12:14:56;30.43;;;22.80;;
7027;SDS011;3555;53.248;10.336;2023-10-19T12:17:25;34.27;;;23.60;;
7027;SDS011;3555;53.248;10.336;2023-10-19T12:19:53;31.40;;;22.43;;
7027;SDS011;3555;53.248;10.336;2023-10-19T12:22:20;29.47;;;22.40;;
7027;SDS011;3555;53.248;10.336;2023-10-19T12:24:49;33.20;;;23.27;;
7027;SDS011;3555;53.248;10.336;2023-10-19T12:27:17;29.10;;;21.60;;
7027;SDS011;3555;53.248;10.336;2023-10-19T12:29:44;29.73;;;22.57;;
7027;SDS011;3555;53.248;10.336;2023-10-19T12:32:11;30.27;;;22.77;;
7027;SDS011;3555;53.248;10.336;2023-10-19T12:34:41;28.23;;;21.57;;
7027;SDS011;3555;53.248;10.336;2023-10-19T12:37:09;29.20;;;22.40;;
7027;SDS011;3555;53.248;10.336;2023-10-19T12:39:38;30.03;;;21.87;;
7027;SDS011;3555;53.248;10.336;2023-10-19T12:42:10;28.53;;;21.40;;
7027;SDS011;3555;53.248;10.336;2023-10-19T12:44:39;26.97;;;20.93;;
7027;SDS011;3555;53.248;10.336;2023-10-19T12:47:06;26.07;;;20.23;;
7027;SDS011;3555;53.248;10.336;2023-10-19T12:49:35;26.77;;;19.90;;
7027;SDS011;3555;53.248;10.336;2023-10-19T12:52:04;28.57;;;19.60;;
7027;SDS011;3555;53.248;10.336;2023-10-19T12:54:32;25.80;;;19.57;;
7027;SDS011;3555;53.248;10.336;2023-10-19T12:56:59;28.37;;;21.00;;
7027;SDS011;3555;53.248;10.336;2023-10-19T12:59:28;29.97;;;21.00;;
7027;SDS011;3555;53.248;10.336;2023-10-19T13:01:56;26.63;;;20.80;;
7027;SDS011;3555;53.248;10.336;2023-10-19T13:04:24;28.77;;;22.03;;
7027;SDS011;3555;53.248;10.336;2023-10-19T13:06:54;30.57;;;21.40;;
7027;SDS011;3555;53.248;10.336;2023-10-19T13:09:24;27.37;;;20.60;;
7027;SDS011;3555;53.248;10.336;2023-10-19T13:11:56;29.80;;;21.60;;
7027;SDS011;3555;53.248;10.336;2023-10-19T13:14:23;31.40;;;22.03;;
7027;SDS011;3555;53.248;10.336;2023-10-19T13:16:50;32.17;;;23.03;;
7027;SDS011;3555;53.248;10.336;2023-10-19T13:19:19;31.60;;;22.53;;
7027;SDS011;3555;53.248;10.336;2023-10-19T13:21:49;32.90;;;24.03;;
7027;SDS011;3555;53.248;10.336;2023-10-19T13:24:17;32.67;;;24.87;;
7027;SDS011;3555;53.248;10.336;2023-10-19T13:26:47;34.00;;;25.07;;
7027;SDS011;3555;53.248;10.336;2023-10-19T13:29:14;33.53;;;23.83;;
7027;SDS011;3555;53.248;10.336;2023-10-19T13:31:42;28.97;;;21.87;;
7027;SDS011;3555;53.248;10.336;2023-10-19T13:34:14;32.07;;;23.87;;
7027;SDS011;3555;53.248;10.336;2023-10-19T13:36:41;35.27;;;24.57;;
7027;SDS011;3555;53.248;10.336;2023-10-19T13:39:09;31.83;;;23.27;;
7027;SDS011;3555;53.248;10.336;2023-10-19T13:41:41;29.47;;;22.50;;
7027;SDS011;3555;53.248;10.336;2023-10-19T13:44:10;30.30;;;23.53;;
7027;SDS011;3555;53.248;10.336;2023-10-19T13:46:38;35.63;;;24.07;;
7027;SDS011;3555;53.248;10.336;2023-10-19T13:49:04;32.50;;;23.47;;
7027;SDS011;3555;53.248;10.336;2023-10-19T13:51:32;31.57;;;22.40;;
7027;SDS011;3555;53.248;10.336;2023-10-19T13:53:59;29.90;;;21.23;;
7027;SDS011;3555;53.248;10.336;2023-10-19T13:56:26;30.03;;;21.73;;
7027;SDS011;3555;53.248;10.336;2023-10-19T13:58:53;30.60;;;22.10;;
7027;SDS011;3555;53.248;10.336;2023-10-19T14:01:22;31.70;;;21.83;;
7027;SDS011;3555;53.248;10.336;2023-10-19T14:03:51;28.43;;;20.43;;
7027;SDS011;3555;53.248;10.336;2023-10-19T14:06:20;28.67;;;20.67;;
7027;SDS011;3555;53.248;10.336;2023-10-19T14:08:47;31.00;;;21.67;;
7027;SDS011;3555;53.248;10.336;2023-10-19T14:11:14;29.07;;;20.67;;
7027;SDS011;3555;53.248;10.336;2023-10-19T14:13:41;30.30;;;21.57;;
7027;SDS011;3555;53.248;10.336;2023-10-19T14:16:08;29.43;;;20.20;;
7027;SDS011;3555;53.248;10.336;2023-10-19T14:18:37;30.97;;;21.37;;
7027;SDS011;3555;53.248;10.336;2023-10-19T14:21:10;28.73;;;20.73;;
7027;SDS011;3555;53.248;10.336;2023-10-19T14:23:39;30.07;;;21.70;;
7027;SDS011;3555;53.248;10.336;2023-10-19T14:26:06;28.93;;;21.23;;
7027;SDS011;3555;53.248;10.336;2023-10-19T14:28:34;30.70;;;21.37;;
7027;SDS011;3555;53.248;10.336;2023-10-19T14:31:01;29.23;;;21.37;;
7027;SDS011;3555;53.248;10.336;2023-10-19T14:33:29;27.57;;;21.03;;
7027;SDS011;3555;53.248;10.336;2023-10-19T14:35:57;29.73;;;21.63;;
7027;SDS011;3555;53.248;10.336;2023-10-19T14:38:25;30.60;;;21.97;;
7027;SDS011;3555;53.248;10.336;2023-10-19T14:40:52;30.23;;;21.77;;
7027;SDS011;3555;53.248;10.336;2023-10-19T14:43:19;28.83;;;21.33;;
7027;SDS011;3555;53.248;10.336;2023-10-19T14:45:46;28.20;;;21.47;;
7027;SDS011;3555;53.248;10.336;2023-10-19T14:48:13;27.83;;;21.27;;
7027;SDS011;3555;53.248;10.336;2023-10-19T14:50:41;30.00;;;22.33;;
7027;SDS011;3555;53.248;10.336;2023-10-19T14:53:10;31.73;;;23.47;;